sensor_id;sensor_type;location;lat;lon;timestamp;pressure;altitude;pressure_sealevel;temperature;humidity
82152;BME280;71721;47.904;-122.188;2023-09-19T00:02:22;100722.46;;;5.42;30.31
82152;BME280;71721;47.904;-122.188;2023-09-19T00:04:33;100720.62;;;5.52;30.56
82152;BME280;71721;47.904;-122.188;2023-09-19T00:06:58;100717.43;;;5.11;31.63
82152;BME280;71721;47.904;-122.188;2023-09-19T00:09:24;100717.26;;;4.70;31.87
82152;BME280;71721;47.904;-122.188;2023-09-19T00:11:54;100715.80;;;5.29;31.76
82152;BME280;71721;47.904;-122.188;2023-09-19T00:14:14;100711.70;;;5.04;31.50
82152;BME280;71721;47.904;-122.188;2023-09-19T00:16:45;100714.32;;;5.27;31.78
82152;BME280;71721;47.904;-122.188;2023-09-19T00:19:06;100711.31;;;6.70;31.12
82152;BME280;71721;47.904;-122.188;2023-09-19T00:21:32;100708.97;;;7.42;30.77
82152;BME280;71721;47.904;-122.188;2023-09-19T00:23:56;100721.98;;;6.44;31.63
82152;BME280;71721;47.904;-122.188;2023-09-19T00:26:21;100730.52;;;4.98;34.88
82152;BME280;71721;47.904;-122.188;2023-09-19T00:28:53;100728.99;;;4.47;35.81
82152;BME280;71721;47.904;-122.188;2023-09-19T00:31:13;100734.56;;;4.08;35.90
82152;BME280;71721;47.904;-122.188;2023-09-19T00:33:37;100733.68;;;5.37;34.81
82152;BME280;71721;47.904;-122.188;2023-09-19T00:36:04;100723.84;;;5.28;34.10
82152;BME280;71721;47.904;-122.188;2023-09-19T00:38:28;100710.42;;;5.59;32.74
82152;BME280;71721;47.904;-122.188;2023-09-19T00:40:55;100706.97;;;5.53;32.92
82152;BME280;71721;47.904;-122.188;2023-09-19T00:43:20;100707.01;;;5.75;32.09
82152;BME280;71721;47.904;-122.188;2023-09-19T00:45:46;100706.51;;;4.88;32.89
82152;BME280;71721;47.904;-122.188;2023-09-19T00:48:10;100704.61;;;5.48;32.78
82152;BME280;71721;47.904;-122.188;2023-09-19T00:50:36;100702.43;;;3.99;36.11
82152;BME280;71721;47.904;-122.188;2023-09-19T00:53:07;100703.01;;;6.23;32.60
82152;BME280;71721;47.904;-122.188;2023-09-19T00:55:28;100704.22;;;5.97;31.89
82152;BME280;71721;47.904;-122.188;2023-09-19T00:57:52;100706.01;;;4.09;34.29
82152;BME280;71721;47.904;-122.188;2023-09-19T01:00:19;100700.39;;;4.92;33.88
82152;BME280;71721;47.904;-122.188;2023-09-19T01:02:44;100711.67;;;4.47;35.37
82152;BME280;71721;47.904;-122.188;2023-09-19T01:05:08;100700.00;;;3.63;37.06
82152;BME280;71721;47.904;-122.188;2023-09-19T01:07:34;100701.57;;;3.90;37.23
82152;BME280;71721;47.904;-122.188;2023-09-19T01:09:59;100704.77;;;3.94;37.37
82152;BME280;71721;47.904;-122.188;2023-09-19T01:12:35;100698.36;;;5.54;34.66
82152;BME280;71721;47.904;-122.188;2023-09-19T01:14:55;100697.71;;;4.42;35.76
82152;BME280;71721;47.904;-122.188;2023-09-19T01:17:22;100699.19;;;2.65;36.46
82152;BME280;71721;47.904;-122.188;2023-09-19T01:20:11;100700.13;;;4.61;34.81
82152;BME280;71721;47.904;-122.188;2023-09-19T01:22:13;100698.96;;;3.44;36.81
82152;BME280;71721;47.904;-122.188;2023-09-19T01:27:06;100705.85;;;3.87;37.86
82152;BME280;71721;47.904;-122.188;2023-09-19T01:29:33;100705.52;;;2.05;38.98
82152;BME280;71721;47.904;-122.188;2023-09-19T01:31:38;100710.28;;;2.23;37.12
82152;BME280;71721;47.904;-122.188;2023-09-19T01:34:02;100708.47;;;4.24;36.12
82152;BME280;71721;47.904;-122.188;2023-09-19T01:36:29;100703.42;;;3.53;38.19
82152;BME280;71721;47.904;-122.188;2023-09-19T01:38:52;100710.47;;;3.44;38.36
82152;BME280;71721;47.904;-122.188;2023-09-19T01:41:25;100704.81;;;3.71;38.50
82152;BME280;71721;47.904;-122.188;2023-09-19T01:43:43;100711.03;;;3.38;38.78
82152;BME280;71721;47.904;-122.188;2023-09-19T01:46:18;100713.86;;;3.20;40.19
82152;BME280;71721;47.904;-122.188;2023-09-19T01:48:43;100708.47;;;3.70;38.83
82152;BME280;71721;47.904;-122.188;2023-09-19T01:51:06;100711.13;;;3.05;39.84
82152;BME280;71721;47.904;-122.188;2023-09-19T01:53:30;100709.32;;;4.06;38.87
82152;BME280;71721;47.904;-122.188;2023-09-19T01:55:51;100702.07;;;2.67;40.36
82152;BME280;71721;47.904;-122.188;2023-09-19T01:58:20;100707.26;;;4.03;38.66
82152;BME280;71721;47.904;-122.188;2023-09-19T02:00:42;100708.37;;;3.27;39.93
82152;BME280;71721;47.904;-122.188;2023-09-19T02:03:07;100709.74;;;3.06;39.98
82152;BME280;71721;47.904;-122.188;2023-09-19T02:05:33;100711.35;;;2.54;40.43
82152;BME280;71721;47.904;-122.188;2023-09-19T02:07:58;100714.70;;;3.88;39.65
82152;BME280;71721;47.904;-122.188;2023-09-19T02:10:23;100714.74;;;4.40;38.56
82152;BME280;71721;47.904;-122.188;2023-09-19T02:12:48;100705.99;;;4.53;38.08
82152;BME280;71721;47.904;-122.188;2023-09-19T02:15:14;100707.68;;;3.16;39.30
82152;BME280;71721;47.904;-122.188;2023-09-19T02:17:39;100703.88;;;3.66;39.06
82152;BME280;71721;47.904;-122.188;2023-09-19T02:20:06;100700.35;;;3.44;40.21
82152;BME280;71721;47.904;-122.188;2023-09-19T02:22:29;100704.47;;;2.16;41.75
82152;BME280;71721;47.904;-122.188;2023-09-19T02:24:56;100700.66;;;2.22;41.57
82152;BME280;71721;47.904;-122.188;2023-09-19T02:27:21;100696.94;;;2.29;41.43
82152;BME280;71721;47.904;-122.188;2023-09-19T02:29:47;100701.29;;;3.60;39.14
82152;BME280;71721;47.904;-122.188;2023-09-19T02:32:16;100698.99;;;3.70;39.75
82152;BME280;71721;47.904;-122.188;2023-09-19T02:34:37;100697.25;;;2.16;41.31
82152;BME280;71721;47.904;-122.188;2023-09-19T02:37:03;100703.45;;;1.50;42.43
82152;BME280;71721;47.904;-122.188;2023-09-19T02:39:29;100701.83;;;1.34;42.63
82152;BME280;71721;47.904;-122.188;2023-09-19T02:41:53;100706.56;;;3.10;41.08
82152;BME280;71721;47.904;-122.188;2023-09-19T02:44:29;100704.51;;;2.05;42.29
82152;BME280;71721;47.904;-122.188;2023-09-19T02:47:55;100703.15;;;1.69;42.90
82152;BME280;71721;47.904;-122.188;2023-09-19T02:49:11;100706.91;;;1.23;43.00
82152;BME280;71721;47.904;-122.188;2023-09-19T02:51:34;100701.10;;;1.58;42.57
82152;BME280;71721;47.904;-122.188;2023-09-19T02:54:09;100705.33;;;1.72;43.02
82152;BME280;71721;47.904;-122.188;2023-09-19T02:56:25;100708.43;;;2.97;40.33
82152;BME280;71721;47.904;-122.188;2023-09-19T02:58:53;100712.53;;;2.53;40.73
82152;BME280;71721;47.904;-122.188;2023-09-19T03:01:18;100709.18;;;2.40;40.44
82152;BME280;71721;47.904;-122.188;2023-09-19T03:03:47;100714.71;;;1.72;42.93
82152;BME280;71721;47.904;-122.188;2023-09-19T03:06:08;100718.26;;;1.52;43.39
82152;BME280;71721;47.904;-122.188;2023-09-19T03:08:33;100721.75;;;2.54;41.40
82152;BME280;71721;47.904;-122.188;2023-09-19T03:10:59;100722.68;;;0.57;44.15
82152;BME280;71721;47.904;-122.188;2023-09-19T03:13:27;100725.23;;;2.31;41.98
82152;BME280;71721;47.904;-122.188;2023-09-19T03:15:50;100723.63;;;0.44;44.12
82152;BME280;71721;47.904;-122.188;2023-09-19T03:18:23;100720.03;;;2.06;42.73
82152;BME280;71721;47.904;-122.188;2023-09-19T03:20:42;100721.92;;;2.64;41.22
82152;BME280;71721;47.904;-122.188;2023-09-19T03:23:06;100726.11;;;1.14;43.38
82152;BME280;71721;47.904;-122.188;2023-09-19T03:25:37;100731.44;;;0.71;44.68
82152;BME280;71721;47.904;-122.188;2023-09-19T03:28:02;100739.03;;;1.22;44.94
82152;BME280;71721;47.904;-122.188;2023-09-19T03:30:29;100740.37;;;1.76;45.59
82152;BME280;71721;47.904;-122.188;2023-09-19T03:32:49;100746.41;;;-0.07;47.76
82152;BME280;71721;47.904;-122.188;2023-09-19T03:35:21;100741.17;;;0.30;47.27
82152;BME280;71721;47.904;-122.188;2023-09-19T03:37:41;100741.21;;;1.76;44.99
82152;BME280;71721;47.904;-122.188;2023-09-19T03:40:05;100747.35;;;3.15;44.28
82152;BME280;71721;47.904;-122.188;2023-09-19T03:42:31;100741.65;;;2.78;44.99
82152;BME280;71721;47.904;-122.188;2023-09-19T03:44:56;100741.42;;;1.26;45.83
82152;BME280;71721;47.904;-122.188;2023-09-19T03:47:22;100740.12;;;1.76;45.71
82152;BME280;71721;47.904;-122.188;2023-09-19T03:49:52;100742.74;;;2.06;45.91
82152;BME280;71721;47.904;-122.188;2023-09-19T03:52:14;100737.66;;;2.67;46.45
82152;BME280;71721;47.904;-122.188;2023-09-19T03:54:38;100738.37;;;0.42;49.21
82152;BME280;71721;47.904;-122.188;2023-09-19T03:57:05;100744.16;;;1.42;47.21
82152;BME280;71721;47.904;-122.188;2023-09-19T03:59:30;100744.02;;;-0.10;49.86
82152;BME280;71721;47.904;-122.188;2023-09-19T04:02:03;100742.90;;;0.18;49.57
82152;BME280;71721;47.904;-122.188;2023-09-19T04:04:21;100746.26;;;1.90;45.96
82152;BME280;71721;47.904;-122.188;2023-09-19T04:06:47;100743.39;;;3.12;43.09
82152;BME280;71721;47.904;-122.188;2023-09-19T04:09:11;100751.03;;;1.19;45.82
82152;BME280;71721;47.904;-122.188;2023-09-19T04:11:37;100751.24;;;2.33;43.92
82152;BME280;71721;47.904;-122.188;2023-09-19T04:14:14;100754.64;;;3.07;42.09
82152;BME280;71721;47.904;-122.188;2023-09-19T04:16:33;100754.11;;;4.51;40.35
82152;BME280;71721;47.904;-122.188;2023-09-19T04:18:54;100746.49;;;5.92;39.06
82152;BME280;71721;47.904;-122.188;2023-09-19T04:21:19;100748.82;;;7.77;36.38
82152;BME280;71721;47.904;-122.188;2023-09-19T04:23:45;100745.25;;;5.51;38.85
82152;BME280;71721;47.904;-122.188;2023-09-19T04:26:31;100754.37;;;3.01;43.01
82152;BME280;71721;47.904;-122.188;2023-09-19T04:28:41;100754.18;;;2.13;43.95
82152;BME280;71721;47.904;-122.188;2023-09-19T04:31:02;100758.67;;;0.07;46.81
82152;BME280;71721;47.904;-122.188;2023-09-19T04:33:27;100765.54;;;1.32;44.95
82152;BME280;71721;47.904;-122.188;2023-09-19T04:35:51;100763.19;;;2.54;43.73
82152;BME280;71721;47.904;-122.188;2023-09-19T04:38:17;100759.84;;;5.15;39.32
82152;BME280;71721;47.904;-122.188;2023-09-19T04:40:43;100756.93;;;6.26;38.09
82152;BME280;71721;47.904;-122.188;2023-09-19T04:43:11;100757.30;;;5.13;38.19
82152;BME280;71721;47.904;-122.188;2023-09-19T04:45:41;100750.38;;;5.25;37.43
82152;BME280;71721;47.904;-122.188;2023-09-19T04:48:04;100745.72;;;5.52;37.29
82152;BME280;71721;47.904;-122.188;2023-09-19T04:50:24;100743.49;;;6.39;36.41
82152;BME280;71721;47.904;-122.188;2023-09-19T04:52:51;100740.13;;;6.17;36.39
82152;BME280;71721;47.904;-122.188;2023-09-19T04:55:17;100737.48;;;7.88;34.84
82152;BME280;71721;47.904;-122.188;2023-09-19T04:57:41;100736.56;;;6.44;35.61
82152;BME280;71721;47.904;-122.188;2023-09-19T05:00:12;100735.14;;;5.44;37.12
82152;BME280;71721;47.904;-122.188;2023-09-19T05:02:32;100732.81;;;7.73;34.58
82152;BME280;71721;47.904;-122.188;2023-09-19T05:04:58;100728.41;;;8.51;34.18
82152;BME280;71721;47.904;-122.188;2023-09-19T05:07:23;100732.61;;;7.36;34.83
82152;BME280;71721;47.904;-122.188;2023-09-19T05:09:48;100733.03;;;6.10;35.84
82152;BME280;71721;47.904;-122.188;2023-09-19T05:12:14;100734.92;;;7.28;35.34
82152;BME280;71721;47.904;-122.188;2023-09-19T05:14:39;100738.84;;;3.84;38.47
82152;BME280;71721;47.904;-122.188;2023-09-19T05:17:05;100738.00;;;6.66;35.71
82152;BME280;71721;47.904;-122.188;2023-09-19T05:19:30;100741.44;;;6.66;35.28
82152;BME280;71721;47.904;-122.188;2023-09-19T05:21:56;100741.11;;;7.18;34.48
82152;BME280;71721;47.904;-122.188;2023-09-19T05:24:21;100742.78;;;7.85;34.59
82152;BME280;71721;47.904;-122.188;2023-09-19T05:26:47;100745.27;;;8.33;34.20
82152;BME280;71721;47.904;-122.188;2023-09-19T05:29:13;100744.16;;;8.86;34.54
82152;BME280;71721;47.904;-122.188;2023-09-19T05:31:38;100741.53;;;8.07;35.17
82152;BME280;71721;47.904;-122.188;2023-09-19T05:34:03;100740.67;;;8.02;34.78
82152;BME280;71721;47.904;-122.188;2023-09-19T05:36:29;100738.53;;;8.57;34.09
82152;BME280;71721;47.904;-122.188;2023-09-19T05:38:54;100738.05;;;7.95;35.69
82152;BME280;71721;47.904;-122.188;2023-09-19T05:41:20;100733.84;;;7.68;36.37
82152;BME280;71721;47.904;-122.188;2023-09-19T05:43:45;100735.00;;;8.16;35.58
82152;BME280;71721;47.904;-122.188;2023-09-19T05:46:11;100732.29;;;7.91;36.05
82152;BME280;71721;47.904;-122.188;2023-09-19T05:48:36;100737.06;;;7.75;36.34
82152;BME280;71721;47.904;-122.188;2023-09-19T05:51:06;100739.46;;;7.62;36.43
82152;BME280;71721;47.904;-122.188;2023-09-19T05:53:27;100735.16;;;7.27;36.85
82152;BME280;71721;47.904;-122.188;2023-09-19T05:55:52;100736.57;;;7.42;36.32
82152;BME280;71721;47.904;-122.188;2023-09-19T05:58:18;100735.85;;;7.40;36.28
82152;BME280;71721;47.904;-122.188;2023-09-19T06:00:43;100730.40;;;6.34;37.60
82152;BME280;71721;47.904;-122.188;2023-09-19T06:03:09;100730.87;;;6.42;37.31
82152;BME280;71721;47.904;-122.188;2023-09-19T06:05:35;100728.23;;;6.67;37.45
82152;BME280;71721;47.904;-122.188;2023-09-19T06:08:00;100728.21;;;6.35;37.65
82152;BME280;71721;47.904;-122.188;2023-09-19T06:10:25;100730.92;;;6.28;38.49
82152;BME280;71721;47.904;-122.188;2023-09-19T06:12:51;100732.56;;;6.62;38.59
82152;BME280;71721;47.904;-122.188;2023-09-19T06:15:17;100732.96;;;5.94;39.12
82152;BME280;71721;47.904;-122.188;2023-09-19T06:17:42;100739.36;;;4.33;40.89
82152;BME280;71721;47.904;-122.188;2023-09-19T06:20:09;100737.53;;;5.48;39.51
82152;BME280;71721;47.904;-122.188;2023-09-19T06:22:33;100740.34;;;6.64;38.73
82152;BME280;71721;47.904;-122.188;2023-09-19T06:24:58;100740.36;;;6.94;38.03
82152;BME280;71721;47.904;-122.188;2023-09-19T06:27:24;100742.84;;;6.84;37.78
82152;BME280;71721;47.904;-122.188;2023-09-19T06:29:49;100744.10;;;6.87;37.22
82152;BME280;71721;47.904;-122.188;2023-09-19T06:32:15;100745.54;;;6.10;39.08
82152;BME280;71721;47.904;-122.188;2023-09-19T06:34:41;100742.63;;;6.26;38.37
82152;BME280;71721;47.904;-122.188;2023-09-19T06:37:07;100744.86;;;6.45;39.18
82152;BME280;71721;47.904;-122.188;2023-09-19T06:39:32;100744.63;;;6.30;38.93
82152;BME280;71721;47.904;-122.188;2023-09-19T06:41:58;100742.06;;;6.12;39.05
82152;BME280;71721;47.904;-122.188;2023-09-19T06:44:28;100741.46;;;6.26;38.96
82152;BME280;71721;47.904;-122.188;2023-09-19T06:46:48;100739.04;;;6.38;38.49
82152;BME280;71721;47.904;-122.188;2023-09-19T06:49:13;100733.91;;;5.94;39.07
82152;BME280;71721;47.904;-122.188;2023-09-19T06:51:39;100732.43;;;6.38;38.37
82152;BME280;71721;47.904;-122.188;2023-09-19T06:54:05;100731.49;;;6.65;37.98
82152;BME280;71721;47.904;-122.188;2023-09-19T06:56:36;100730.32;;;6.23;38.61
82152;BME280;71721;47.904;-122.188;2023-09-19T06:58:56;100731.10;;;6.60;38.05
82152;BME280;71721;47.904;-122.188;2023-09-19T07:01:21;100726.14;;;5.45;38.25
82152;BME280;71721;47.904;-122.188;2023-09-19T07:03:47;100723.53;;;6.71;37.79
82152;BME280;71721;47.904;-122.188;2023-09-19T07:06:13;100727.16;;;6.67;37.74
82152;BME280;71721;47.904;-122.188;2023-09-19T07:08:38;100726.70;;;6.52;37.77
82152;BME280;71721;47.904;-122.188;2023-09-19T07:11:05;100723.21;;;6.39;38.72
82152;BME280;71721;47.904;-122.188;2023-09-19T07:13:29;100727.49;;;5.06;40.93
82152;BME280;71721;47.904;-122.188;2023-09-19T07:15:55;100728.30;;;5.29;41.14
82152;BME280;71721;47.904;-122.188;2023-09-19T07:18:20;100725.86;;;5.79;39.85
82152;BME280;71721;47.904;-122.188;2023-09-19T07:20:46;100725.28;;;5.64;40.07
82152;BME280;71721;47.904;-122.188;2023-09-19T07:23:11;100722.86;;;5.90;38.86
82152;BME280;71721;47.904;-122.188;2023-09-19T07:25:38;100723.89;;;6.40;38.42
82152;BME280;71721;47.904;-122.188;2023-09-19T07:28:03;100727.78;;;5.40;38.98
82152;BME280;71721;47.904;-122.188;2023-09-19T07:30:28;100731.39;;;6.37;38.24
82152;BME280;71721;47.904;-122.188;2023-09-19T07:32:59;100729.35;;;6.12;38.57
82152;BME280;71721;47.904;-122.188;2023-09-19T07:35:19;100732.54;;;5.53;39.29
82152;BME280;71721;47.904;-122.188;2023-09-19T07:37:44;100734.61;;;6.07;38.81
82152;BME280;71721;47.904;-122.188;2023-09-19T07:40:12;100738.44;;;5.74;39.92
82152;BME280;71721;47.904;-122.188;2023-09-19T07:42:36;100734.97;;;5.63;38.88
82152;BME280;71721;47.904;-122.188;2023-09-19T07:45:01;100739.98;;;5.70;39.79
82152;BME280;71721;47.904;-122.188;2023-09-19T07:47:27;100735.20;;;6.19;38.92
82152;BME280;71721;47.904;-122.188;2023-09-19T07:49:52;100735.82;;;6.22;38.66
82152;BME280;71721;47.904;-122.188;2023-09-19T07:52:18;100736.52;;;5.92;38.81
82152;BME280;71721;47.904;-122.188;2023-09-19T07:54:44;100734.49;;;6.03;38.71
82152;BME280;71721;47.904;-122.188;2023-09-19T07:57:09;100736.12;;;6.02;38.12
82152;BME280;71721;47.904;-122.188;2023-09-19T07:59:35;100735.72;;;6.30;38.62
82152;BME280;71721;47.904;-122.188;2023-09-19T08:02:00;100740.20;;;6.18;39.67
82152;BME280;71721;47.904;-122.188;2023-09-19T08:04:26;100748.17;;;3.85;41.51
82152;BME280;71721;47.904;-122.188;2023-09-19T08:06:51;100752.54;;;2.64;42.35
82152;BME280;71721;47.904;-122.188;2023-09-19T08:09:18;100758.16;;;4.14;40.63
82152;BME280;71721;47.904;-122.188;2023-09-19T08:11:42;100761.68;;;5.13;39.58
82152;BME280;71721;47.904;-122.188;2023-09-19T08:14:08;100759.04;;;5.73;38.91
82152;BME280;71721;47.904;-122.188;2023-09-19T08:16:34;100754.91;;;5.90;38.58
82152;BME280;71721;47.904;-122.188;2023-09-19T08:18:59;100752.81;;;5.86;38.39
82152;BME280;71721;47.904;-122.188;2023-09-19T08:21:30;100760.14;;;4.50;40.38
82152;BME280;71721;47.904;-122.188;2023-09-19T08:23:50;100761.45;;;4.90;40.48
82152;BME280;71721;47.904;-122.188;2023-09-19T08:26:15;100761.36;;;3.56;41.61
82152;BME280;71721;47.904;-122.188;2023-09-19T08:28:41;100757.10;;;5.14;40.16
82152;BME280;71721;47.904;-122.188;2023-09-19T08:31:07;100748.84;;;5.35;39.45
82152;BME280;71721;47.904;-122.188;2023-09-19T08:33:33;100748.19;;;5.75;38.86
82152;BME280;71721;47.904;-122.188;2023-09-19T08:35:58;100744.12;;;5.78;38.15
82152;BME280;71721;47.904;-122.188;2023-09-19T08:38:23;100744.66;;;6.22;37.42
82152;BME280;71721;47.904;-122.188;2023-09-19T08:40:54;100742.73;;;5.65;37.56
82152;BME280;71721;47.904;-122.188;2023-09-19T08:43:15;100747.37;;;5.08;37.51
82152;BME280;71721;47.904;-122.188;2023-09-19T08:45:40;100744.17;;;5.31;37.38
82152;BME280;71721;47.904;-122.188;2023-09-19T08:48:20;100750.26;;;4.52;37.93
82152;BME280;71721;47.904;-122.188;2023-09-19T08:50:32;100747.50;;;5.79;36.73
82152;BME280;71721;47.904;-122.188;2023-09-19T08:53:01;100746.17;;;6.23;36.38
82152;BME280;71721;47.904;-122.188;2023-09-19T08:55:28;100746.91;;;5.60;36.51
82152;BME280;71721;47.904;-122.188;2023-09-19T08:57:50;100747.67;;;5.92;36.18
82152;BME280;71721;47.904;-122.188;2023-09-19T09:00:15;100752.34;;;6.06;35.97
82152;BME280;71721;47.904;-122.188;2023-09-19T09:02:40;100761.00;;;5.32;37.36
82152;BME280;71721;47.904;-122.188;2023-09-19T09:05:06;100764.61;;;5.79;37.28
82152;BME280;71721;47.904;-122.188;2023-09-19T09:07:30;100760.74;;;6.10;36.49
82152;BME280;71721;47.904;-122.188;2023-09-19T09:10:03;100761.10;;;6.72;35.85
82152;BME280;71721;47.904;-122.188;2023-09-19T09:12:21;100769.31;;;6.57;35.80
82152;BME280;71721;47.904;-122.188;2023-09-19T09:14:47;100772.54;;;6.54;35.52
82152;BME280;71721;47.904;-122.188;2023-09-19T09:17:12;100778.64;;;7.13;35.11
82152;BME280;71721;47.904;-122.188;2023-09-19T09:19:38;100780.35;;;6.65;35.21
82152;BME280;71721;47.904;-122.188;2023-09-19T09:22:07;100787.26;;;6.23;36.02
82152;BME280;71721;47.904;-122.188;2023-09-19T09:24:29;100789.86;;;6.93;35.77
82152;BME280;71721;47.904;-122.188;2023-09-19T09:26:54;100796.41;;;6.31;36.19
82152;BME280;71721;47.904;-122.188;2023-09-19T09:29:42;100798.29;;;6.21;35.93
82152;BME280;71721;47.904;-122.188;2023-09-19T09:31:45;100801.16;;;6.59;35.81
82152;BME280;71721;47.904;-122.188;2023-09-19T09:34:12;100801.64;;;6.09;36.14
82152;BME280;71721;47.904;-122.188;2023-09-19T09:36:38;100800.46;;;6.10;35.84
82152;BME280;71721;47.904;-122.188;2023-09-19T09:39:02;100802.32;;;6.04;36.11
82152;BME280;71721;47.904;-122.188;2023-09-19T09:41:36;100805.85;;;5.09;37.19
82152;BME280;71721;47.904;-122.188;2023-09-19T09:43:54;100795.04;;;6.05;36.43
82152;BME280;71721;47.904;-122.188;2023-09-19T09:46:20;100789.19;;;6.60;36.03
82152;BME280;71721;47.904;-122.188;2023-09-19T09:48:45;100784.97;;;6.09;35.84
82152;BME280;71721;47.904;-122.188;2023-09-19T09:51:10;100783.51;;;6.43;36.16
82152;BME280;71721;47.904;-122.188;2023-09-19T09:53:36;100780.92;;;6.58;35.91
82152;BME280;71721;47.904;-122.188;2023-09-19T09:56:03;100783.75;;;6.35;35.77
82152;BME280;71721;47.904;-122.188;2023-09-19T09:58:26;100785.59;;;6.64;35.59
82152;BME280;71721;47.904;-122.188;2023-09-19T10:00:54;100783.06;;;6.32;35.73
82152;BME280;71721;47.904;-122.188;2023-09-19T10:03:20;100781.15;;;7.02;35.70
82152;BME280;71721;47.904;-122.188;2023-09-19T10:05:45;100781.67;;;6.71;35.92
82152;BME280;71721;47.904;-122.188;2023-09-19T10:08:12;100781.55;;;6.06;36.21
82152;BME280;71721;47.904;-122.188;2023-09-19T10:10:36;100783.61;;;5.23;36.93
82152;BME280;71721;47.904;-122.188;2023-09-19T10:13:00;100778.06;;;5.64;36.72
82152;BME280;71721;47.904;-122.188;2023-09-19T10:15:27;100773.45;;;5.48;36.81
82152;BME280;71721;47.904;-122.188;2023-09-19T10:17:52;100764.98;;;6.35;35.95
82152;BME280;71721;47.904;-122.188;2023-09-19T10:20:18;100763.33;;;6.33;36.46
82152;BME280;71721;47.904;-122.188;2023-09-19T10:22:43;100757.95;;;6.19;36.54
82152;BME280;71721;47.904;-122.188;2023-09-19T10:25:09;100748.90;;;5.59;36.40
82152;BME280;71721;47.904;-122.188;2023-09-19T10:27:40;100745.47;;;6.14;36.29
82152;BME280;71721;47.904;-122.188;2023-09-19T10:29:59;100742.02;;;6.20;36.04
82152;BME280;71721;47.904;-122.188;2023-09-19T10:32:27;100741.91;;;6.00;35.87
82152;BME280;71721;47.904;-122.188;2023-09-19T10:34:51;100742.62;;;5.76;36.61
82152;BME280;71721;47.904;-122.188;2023-09-19T10:37:17;100737.62;;;5.84;36.52
82152;BME280;71721;47.904;-122.188;2023-09-19T10:39:41;100737.10;;;5.62;36.42
82152;BME280;71721;47.904;-122.188;2023-09-19T10:42:08;100734.12;;;5.46;36.23
82152;BME280;71721;47.904;-122.188;2023-09-19T10:44:34;100733.70;;;5.32;36.46
82152;BME280;71721;47.904;-122.188;2023-09-19T10:46:58;100728.03;;;5.75;36.13
82152;BME280;71721;47.904;-122.188;2023-09-19T10:49:24;100727.92;;;6.31;35.85
82152;BME280;71721;47.904;-122.188;2023-09-19T10:51:52;100731.54;;;5.89;36.33
82152;BME280;71721;47.904;-122.188;2023-09-19T10:54:17;100727.51;;;5.62;36.07
82152;BME280;71721;47.904;-122.188;2023-09-19T10:56:44;100721.92;;;5.96;35.54
82152;BME280;71721;47.904;-122.188;2023-09-19T10:59:08;100724.43;;;6.19;35.56
82152;BME280;71721;47.904;-122.188;2023-09-19T11:01:42;100727.93;;;6.31;36.00
82152;BME280;71721;47.904;-122.188;2023-09-19T11:04:22;100729.23;;;6.16;35.64
82152;BME280;71721;47.904;-122.188;2023-09-19T11:06:22;100725.82;;;6.04;35.61
82152;BME280;71721;47.904;-122.188;2023-09-19T11:08:58;100724.13;;;6.30;35.53
82152;BME280;71721;47.904;-122.188;2023-09-19T11:11:40;100717.62;;;6.31;35.28
82152;BME280;71721;47.904;-122.188;2023-09-19T11:13:39;100721.47;;;6.42;35.37
82152;BME280;71721;47.904;-122.188;2023-09-19T11:16:07;100719.27;;;6.79;35.04
82152;BME280;71721;47.904;-122.188;2023-09-19T11:19:03;100721.32;;;6.64;35.09
82152;BME280;71721;47.904;-122.188;2023-09-19T11:21:40;100722.55;;;6.47;35.18
82152;BME280;71721;47.904;-122.188;2023-09-19T11:23:26;100714.53;;;6.02;35.72
82152;BME280;71721;47.904;-122.188;2023-09-19T11:25:52;100709.94;;;6.43;35.45
82152;BME280;71721;47.904;-122.188;2023-09-19T11:28:44;100709.26;;;6.32;35.42
82152;BME280;71721;47.904;-122.188;2023-09-19T11:30:39;100709.40;;;6.24;35.56
82152;BME280;71721;47.904;-122.188;2023-09-19T11:33:20;100701.97;;;5.82;36.75
82152;BME280;71721;47.904;-122.188;2023-09-19T11:36:00;100709.11;;;5.21;37.52
82152;BME280;71721;47.904;-122.188;2023-09-19T11:38:04;100709.47;;;5.20;37.12
82152;BME280;71721;47.904;-122.188;2023-09-19T11:40:21;100705.79;;;5.69;37.03
82152;BME280;71721;47.904;-122.188;2023-09-19T11:42:48;100698.89;;;6.03;36.43
82152;BME280;71721;47.904;-122.188;2023-09-19T11:46:23;100688.20;;;6.64;36.02
82152;BME280;71721;47.904;-122.188;2023-09-19T11:48:53;100685.86;;;5.96;35.99
82152;BME280;71721;47.904;-122.188;2023-09-19T11:51:18;100687.17;;;5.86;36.32
82152;BME280;71721;47.904;-122.188;2023-09-19T11:53:40;100687.75;;;6.00;36.68
82152;BME280;71721;47.904;-122.188;2023-09-19T11:56:07;100689.12;;;6.01;36.48
82152;BME280;71721;47.904;-122.188;2023-09-19T11:58:31;100695.54;;;6.28;35.79
82152;BME280;71721;47.904;-122.188;2023-09-19T12:01:02;100701.35;;;6.50;35.74
82152;BME280;71721;47.904;-122.188;2023-09-19T12:03:23;100701.33;;;6.63;35.29
82152;BME280;71721;47.904;-122.188;2023-09-19T12:05:48;100699.18;;;6.40;35.48
82152;BME280;71721;47.904;-122.188;2023-09-19T12:08:19;100696.88;;;6.80;35.26
82152;BME280;71721;47.904;-122.188;2023-09-19T12:10:46;100694.95;;;5.90;36.00
82152;BME280;71721;47.904;-122.188;2023-09-19T12:13:05;100691.03;;;6.72;35.20
82152;BME280;71721;47.904;-122.188;2023-09-19T12:15:30;100687.62;;;5.37;36.55
82152;BME280;71721;47.904;-122.188;2023-09-19T12:17:55;100688.19;;;5.97;35.85
82152;BME280;71721;47.904;-122.188;2023-09-19T12:20:20;100696.61;;;6.24;35.08
82152;BME280;71721;47.904;-122.188;2023-09-19T12:22:47;100703.38;;;6.97;34.69
82152;BME280;71721;47.904;-122.188;2023-09-19T12:25:12;100700.06;;;6.21;35.51